createdAt,value
2023-04-10T00:01:24.771Z,11.45
2023-04-10T00:03:54.582Z,11.10
2023-04-10T00:06:24.828Z,11.35
2023-04-10T00:08:54.134Z,11.48
2023-04-10T00:11:23.472Z,10.85
2023-04-10T00:13:53.041Z,11.33
2023-04-10T00:16:22.659Z,11.30
2023-04-10T00:18:52.218Z,10.30
2023-04-10T00:21:21.493Z,10.53
2023-04-10T00:23:50.787Z,10.98
2023-04-10T00:26:21.191Z,11.18
2023-04-10T00:28:50.732Z,10.78
2023-04-10T00:31:20.323Z,11.30
2023-04-10T00:33:49.822Z,11.43
2023-04-10T00:36:20.555Z,10.55
2023-04-10T00:38:50.042Z,10.70
2023-04-10T00:41:19.339Z,10.78
2023-04-10T00:43:48.963Z,10.18
2023-04-10T00:46:18.517Z,10.72
2023-04-10T00:48:48.123Z,10.68
2023-04-10T00:51:19.314Z,10.55
2023-04-10T00:53:52.332Z,10.18
2023-04-10T00:56:22.678Z,9.73
2023-04-10T00:58:52.139Z,10.58
2023-04-10T01:01:21.462Z,10.32
2023-04-10T01:03:51.207Z,9.43
2023-04-10T01:06:23.798Z,9.70
2023-04-10T01:09:20.485Z,9.38
2023-04-10T01:12:11.093Z,9.55
2023-04-10T01:14:49.228Z,9.05
2023-04-10T01:17:34.576Z,9.38
2023-04-10T01:20:06.476Z,8.58
2023-04-10T01:22:51.849Z,9.05
2023-04-10T01:25:24.274Z,9.83
2023-04-10T01:28:22.689Z,9.10
2023-04-10T01:30:57.977Z,8.60
2023-04-10T01:33:31.680Z,8.25
2023-04-10T01:36:03.125Z,8.78
2023-04-10T01:38:33.297Z,8.13
2023-04-10T01:41:02.926Z,8.28
2023-04-10T01:43:33.941Z,8.38
2023-04-10T01:46:04.596Z,8.20
2023-04-10T01:48:34.142Z,8.00
2023-04-10T01:51:05.114Z,7.62
2023-04-10T01:53:35.855Z,7.90
2023-04-10T01:56:06.625Z,8.15
2023-04-10T01:58:38.086Z,7.15
2023-04-10T02:01:10.306Z,8.23
2023-04-10T02:03:39.471Z,7.67
2023-04-10T02:06:31.977Z,7.40
2023-04-10T02:09:13.850Z,7.97
2023-04-10T02:11:51.999Z,7.72
2023-04-10T02:14:23.728Z,7.60
2023-04-10T02:16:54.784Z,7.20
2023-04-10T02:19:26.068Z,7.45
2023-04-10T02:21:55.588Z,7.78
2023-04-10T02:24:25.312Z,7.83
2023-04-10T02:26:54.921Z,7.55
2023-04-10T02:29:24.880Z,7.50
2023-04-10T02:31:54.673Z,7.60
2023-04-10T02:34:23.965Z,7.58
2023-04-10T02:36:53.825Z,7.72
2023-04-10T02:39:23.789Z,7.35
2023-04-10T02:41:53.631Z,7.40
2023-04-10T02:44:22.990Z,7.60
2023-04-10T02:46:52.304Z,7.20
2023-04-10T02:49:22.180Z,7.72
2023-04-10T02:51:51.434Z,7.33
2023-04-10T02:54:21.642Z,7.50
2023-04-10T02:56:51.097Z,7.53
2023-04-10T02:59:21.984Z,7.28
2023-04-10T03:01:53.543Z,7.40
2023-04-10T03:04:23.280Z,7.20
2023-04-10T03:06:52.950Z,7.72
2023-04-10T03:09:22.546Z,7.17
2023-04-10T03:11:52.052Z,7.85
2023-04-10T03:14:21.599Z,7.30
2023-04-10T03:16:50.915Z,7.37
2023-04-10T03:19:20.352Z,7.17
2023-04-10T03:21:49.867Z,7.70
2023-04-10T03:24:20.841Z,8.03
2023-04-10T03:26:50.458Z,7.58
2023-04-10T03:29:20.019Z,7.42
2023-04-10T03:31:49.338Z,7.70
2023-04-10T03:34:18.688Z,7.10
2023-04-10T03:36:48.393Z,7.75
2023-04-10T03:39:17.749Z,7.25
2023-04-10T03:41:47.020Z,7.42
2023-04-10T03:44:16.975Z,7.87
2023-04-10T03:46:46.605Z,8.03
2023-04-10T03:49:16.366Z,7.67
2023-04-10T03:51:46.283Z,7.78
2023-04-10T03:54:15.707Z,7.90
2023-04-10T03:56:45.350Z,7.47
2023-04-10T03:59:14.832Z,7.78
2023-04-10T04:01:44.929Z,8.10
2023-04-10T04:04:14.675Z,8.00
2023-04-10T04:06:55.433Z,7.95
2023-04-10T04:09:32.203Z,8.18
2023-04-10T04:12:15.439Z,7.62
2023-04-10T04:15:02.229Z,7.65
2023-04-10T04:17:49.575Z,7.72
2023-04-10T04:20:37.141Z,7.67
2023-04-10T04:23:20.421Z,8.00
2023-04-10T04:25:52.818Z,8.03
2023-04-10T04:31:07.962Z,7.62
2023-04-10T04:33:54.157Z,7.62
2023-04-10T04:36:29.190Z,7.65
2023-04-10T04:39:00.259Z,7.70
2023-04-10T04:41:37.214Z,8.20
2023-04-10T04:44:14.238Z,8.03
2023-04-10T04:46:54.580Z,8.80
2023-04-10T04:49:25.580Z,9.25
2023-04-10T04:52:13.046Z,9.75
2023-04-10T04:54:59.478Z,9.90
2023-04-10T04:57:39.896Z,9.45
2023-04-10T05:00:11.994Z,9.83
2023-04-10T05:02:58.180Z,9.83
2023-04-10T05:05:32.345Z,9.53
2023-04-10T05:08:03.366Z,9.85
2023-04-10T05:10:38.909Z,9.20
2023-04-10T05:13:13.180Z,9.38
2023-04-10T05:15:44.734Z,9.03
2023-04-10T05:18:23.921Z,8.83
2023-04-10T05:21:01.270Z,9.30
2023-04-10T05:23:48.362Z,9.48
2023-04-10T05:26:19.383Z,9.15
2023-04-10T05:29:06.896Z,9.13
2023-04-10T05:31:41.031Z,8.88
2023-04-10T05:34:11.988Z,9.20
2023-04-10T05:36:42.977Z,8.45
2023-04-10T05:39:26.043Z,8.93
2023-04-10T05:41:59.771Z,8.88
2023-04-10T05:44:33.463Z,9.10
2023-04-10T05:47:13.370Z,8.78
2023-04-10T05:49:44.434Z,8.93
2023-04-10T05:52:31.063Z,8.80
2023-04-10T05:55:02.532Z,8.95
2023-04-10T05:57:51.798Z,8.60
2023-04-10T06:00:34.759Z,8.88
2023-04-10T06:03:22.778Z,8.68
2023-04-10T06:05:54.212Z,8.87
2023-04-10T06:08:23.832Z,8.55
2023-04-10T06:10:54.131Z,8.60
2023-04-10T06:13:24.340Z,8.10
2023-04-10T06:15:55.384Z,8.68
2023-04-10T06:18:25.595Z,8.63
2023-04-10T06:20:56.672Z,8.43
2023-04-10T06:23:26.713Z,9.05
2023-04-10T06:25:58.860Z,8.53
2023-04-10T06:28:28.418Z,8.33
2023-04-10T06:31:01.223Z,8.23
2023-04-10T06:33:32.724Z,8.75
2023-04-10T06:36:02.428Z,8.73
2023-04-10T06:38:35.100Z,8.83
2023-04-10T06:41:06.734Z,8.93
2023-04-10T06:43:38.136Z,8.83
2023-04-10T06:46:07.972Z,8.55
2023-04-10T06:48:37.222Z,8.73
2023-04-10T06:51:07.210Z,8.73
2023-04-10T06:53:36.461Z,8.63
2023-04-10T06:56:07.243Z,8.55
2023-04-10T06:58:36.507Z,8.85
2023-04-10T07:01:06.397Z,8.58
2023-04-10T07:03:35.782Z,8.10
2023-04-10T07:06:05.727Z,9.00
2023-04-10T07:08:35.075Z,8.88
2023-04-10T07:11:04.705Z,8.38
2023-04-10T07:13:35.654Z,8.38
2023-04-10T07:16:05.393Z,8.50
2023-04-10T07:18:35.823Z,8.40
2023-04-10T07:21:12.015Z,8.70
2023-04-10T07:23:41.294Z,8.60
2023-04-10T07:26:10.931Z,8.85
2023-04-10T07:28:40.282Z,8.48
2023-04-10T07:31:10.722Z,8.98
2023-04-10T07:33:40.959Z,8.13
2023-04-10T07:36:10.719Z,8.30
2023-04-10T07:38:40.104Z,8.30
2023-04-10T07:41:11.279Z,8.78
2023-04-10T07:43:41.681Z,8.10
2023-04-10T07:46:11.215Z,8.15
2023-04-10T07:48:41.299Z,8.55
2023-04-10T07:51:10.917Z,9.28
2023-04-10T07:53:40.547Z,8.08
2023-04-10T07:56:12.142Z,8.25
2023-04-10T07:58:41.676Z,8.33
2023-04-10T08:01:11.121Z,8.75
2023-04-10T08:03:41.988Z,8.18
2023-04-10T08:06:12.486Z,8.23
2023-04-10T08:08:42.942Z,8.15
2023-04-10T08:11:27.354Z,7.37
2023-04-10T08:13:59.370Z,7.90
2023-04-10T08:16:31.699Z,8.30
2023-04-10T08:19:02.056Z,7.05
2023-04-10T08:21:32.424Z,7.95
2023-04-10T08:24:03.627Z,8.08
2023-04-10T08:26:32.980Z,7.83
2023-04-10T08:29:02.566Z,7.30
2023-04-10T08:31:32.334Z,7.75
2023-04-10T08:34:01.756Z,7.67
2023-04-10T08:36:31.565Z,7.60
2023-04-10T08:39:00.858Z,7.70
2023-04-10T08:41:30.644Z,8.00
2023-04-10T08:43:59.954Z,7.60
2023-04-10T08:46:30.500Z,7.78
2023-04-10T08:49:05.315Z,7.90
2023-04-10T08:51:50.033Z,7.75
2023-04-10T08:54:27.227Z,7.35
2023-04-10T08:56:58.922Z,8.00
2023-04-10T08:59:30.862Z,7.37
2023-04-10T09:02:01.349Z,7.30
2023-04-10T09:04:31.756Z,7.20
2023-04-10T09:07:02.106Z,7.35
2023-04-10T09:09:34.262Z,7.58
2023-04-10T09:12:04.475Z,7.92
2023-04-10T09:14:38.165Z,8.10
2023-04-10T09:17:22.224Z,7.85
2023-04-10T09:19:56.608Z,8.18
2023-04-10T09:22:33.709Z,8.60
2023-04-10T09:25:05.633Z,8.90
2023-04-10T09:27:37.207Z,9.23
2023-04-10T09:30:08.414Z,8.90
2023-04-10T09:32:47.308Z,9.48
2023-04-10T09:35:17.179Z,11.25
2023-04-10T09:37:47.667Z,11.10
2023-04-10T09:40:27.415Z,10.05
2023-04-10T09:42:58.054Z,10.03
2023-04-10T09:45:27.312Z,10.25
2023-04-10T09:48:05.366Z,10.80
2023-04-10T09:50:40.454Z,10.95
2023-04-10T09:53:15.269Z,10.13
2023-04-10T09:55:45.210Z,11.15
2023-04-10T09:58:15.031Z,10.32
2023-04-10T10:00:48.923Z,10.38
2023-04-10T10:03:21.283Z,9.98
2023-04-10T10:05:52.648Z,9.48
2023-04-10T10:08:23.855Z,9.20
2023-04-10T10:10:55.468Z,9.23
2023-04-10T10:13:29.578Z,7.95
2023-04-10T10:16:18.906Z,7.90
2023-04-10T10:19:24.672Z,7.20
2023-04-10T10:21:54.884Z,6.78
2023-04-10T10:24:26.301Z,6.50
2023-04-10T10:26:57.361Z,6.42
2023-04-10T10:29:26.724Z,6.20
2023-04-10T10:31:56.684Z,6.20
2023-04-10T10:34:26.020Z,6.15
2023-04-10T10:36:55.776Z,6.90
2023-04-10T10:39:48.222Z,6.65
2023-04-10T10:42:24.103Z,6.87
2023-04-10T10:45:17.950Z,6.90
2023-04-10T10:47:52.828Z,6.47
2023-04-10T10:50:25.670Z,6.62
2023-04-10T10:52:56.758Z,6.30
2023-04-10T10:55:31.508Z,6.33
2023-04-10T10:58:02.768Z,6.35
2023-04-10T11:00:55.013Z,6.30
2023-04-10T11:03:27.830Z,6.25
2023-04-10T11:06:07.352Z,6.25
2023-04-10T11:08:45.907Z,5.97
2023-04-10T11:11:18.098Z,5.80
2023-04-10T11:13:56.768Z,5.72
2023-04-10T11:16:36.850Z,5.87
2023-04-10T11:19:13.907Z,6.00
2023-04-10T11:21:59.374Z,5.75
2023-04-10T11:24:30.598Z,6.00
2023-04-10T11:26:59.897Z,5.65
2023-04-10T11:29:33.474Z,5.85
2023-04-10T11:32:05.878Z,5.28
2023-04-10T11:37:04.619Z,5.28
2023-04-10T11:39:34.094Z,5.50
2023-04-10T11:42:04.898Z,4.87
2023-04-10T11:44:39.585Z,4.87
2023-04-10T11:47:12.342Z,5.00
2023-04-10T11:52:11.881Z,4.75
2023-04-10T11:54:44.325Z,5.17
2023-04-10T11:57:13.605Z,4.85
2023-04-10T11:59:43.289Z,4.60
2023-04-10T12:02:17.724Z,5.08
2023-04-10T12:04:47.233Z,4.67
2023-04-10T12:07:17.216Z,5.37
2023-04-10T12:09:46.689Z,4.80
2023-04-10T12:12:16.633Z,5.00
2023-04-10T12:14:46.651Z,4.97
2023-04-10T12:17:16.079Z,5.15
2023-04-10T12:19:45.390Z,4.75
2023-04-10T12:22:14.759Z,4.30
2023-04-10T12:24:51.740Z,5.42
2023-04-10T12:27:26.769Z,4.75
2023-04-10T12:29:58.036Z,4.67
2023-04-10T12:32:30.428Z,4.83
2023-04-10T12:35:03.616Z,4.72
2023-04-10T12:37:52.631Z,5.00
2023-04-10T12:40:21.963Z,5.20
2023-04-10T12:42:51.428Z,5.10
2023-04-10T12:45:21.025Z,4.75
2023-04-10T12:47:52.730Z,4.87
2023-04-10T12:50:22.466Z,4.90
2023-04-10T12:53:11.612Z,4.60
2023-04-10T12:55:42.388Z,5.10
2023-04-10T12:58:24.550Z,4.85
2023-04-10T13:00:53.777Z,5.47
2023-04-10T13:03:23.269Z,5.53
2023-04-10T13:05:53.613Z,5.60
2023-04-10T13:08:24.047Z,5.90
2023-04-10T13:10:54.941Z,5.83
2023-04-10T13:13:24.778Z,5.90
2023-04-10T13:15:55.566Z,6.17
2023-04-10T13:18:24.956Z,5.65
2023-04-10T13:20:54.234Z,5.95
2023-04-10T13:23:23.655Z,6.05
2023-04-10T13:25:53.684Z,5.92
2023-04-10T13:28:24.885Z,6.10
2023-04-10T13:30:54.153Z,6.20
2023-04-10T13:33:25.210Z,6.08
2023-04-10T13:35:54.546Z,6.22
2023-04-10T13:38:24.129Z,6.47
2023-04-10T13:40:54.417Z,5.97
2023-04-10T13:43:24.182Z,6.87
2023-04-10T13:45:53.437Z,5.90
2023-04-10T13:48:29.988Z,6.47
2023-04-10T13:50:54.280Z,6.00
2023-04-10T13:53:24.026Z,6.15
2023-04-10T13:55:53.278Z,5.83
2023-04-10T13:58:22.623Z,5.05
2023-04-10T14:00:52.205Z,4.83
2023-04-10T14:03:21.676Z,5.05
2023-04-10T14:05:52.685Z,5.37
2023-04-10T14:08:22.114Z,5.40
2023-04-10T14:10:51.693Z,5.62
2023-04-10T14:13:21.336Z,6.10
2023-04-10T14:15:52.634Z,6.45
2023-04-10T14:18:21.929Z,6.28
2023-04-10T14:20:51.310Z,5.80
2023-04-10T14:23:22.288Z,5.58
2023-04-10T14:25:52.059Z,5.78
2023-04-10T14:28:21.309Z,5.92
2023-04-10T14:30:52.337Z,5.42
2023-04-10T14:33:21.637Z,5.80
2023-04-10T14:35:51.279Z,5.58
2023-04-10T14:38:20.753Z,5.97
2023-04-10T14:40:50.698Z,5.47
2023-04-10T14:43:20.136Z,5.55
2023-04-10T14:45:49.508Z,5.15
2023-04-10T14:48:21.029Z,6.05
2023-04-10T14:50:50.402Z,6.35
2023-04-10T14:53:21.666Z,5.90
2023-04-10T14:55:51.215Z,5.67
2023-04-10T14:58:20.830Z,5.62
2023-04-10T15:00:50.990Z,5.53
2023-04-10T15:03:22.317Z,5.60
2023-04-10T15:05:53.244Z,5.42
2023-04-10T15:08:22.783Z,6.85
2023-04-10T15:10:53.044Z,6.67
2023-04-10T15:13:23.230Z,6.45
2023-04-10T15:15:52.820Z,8.33
2023-04-10T15:18:22.122Z,7.35
2023-04-10T15:20:52.610Z,6.85
2023-04-10T15:23:22.208Z,16.17
2023-04-10T15:25:51.964Z,8.88
2023-04-10T15:28:21.743Z,7.28
2023-04-10T15:30:51.876Z,7.17
2023-04-10T15:33:21.786Z,7.65
2023-04-10T15:35:52.892Z,8.38
2023-04-10T15:38:22.130Z,8.48
2023-04-10T15:40:51.617Z,8.93
2023-04-10T15:43:20.885Z,9.40
2023-04-10T15:45:50.415Z,10.28
2023-04-10T15:48:21.332Z,11.57
2023-04-10T15:50:50.649Z,14.03
2023-04-10T15:53:19.907Z,13.48
2023-04-10T15:55:49.280Z,14.35
2023-04-10T15:58:19.034Z,16.60
2023-04-10T16:00:48.342Z,20.52
2023-04-10T16:03:17.687Z,21.12
2023-04-10T16:05:47.225Z,16.35
2023-04-10T16:08:16.686Z,16.02
2023-04-10T16:10:45.990Z,13.72
2023-04-10T16:13:15.681Z,15.48
2023-04-10T16:15:46.637Z,15.08
2023-04-10T16:18:15.936Z,15.13
2023-04-10T16:20:45.529Z,13.93
2023-04-10T16:23:15.137Z,11.45
2023-04-10T16:25:44.428Z,9.65
2023-04-10T16:28:13.798Z,10.60
2023-04-10T16:30:43.058Z,9.28
2023-04-10T16:33:12.566Z,9.50
2023-04-10T16:35:41.979Z,9.20
2023-04-10T16:38:11.673Z,10.38
2023-04-10T16:40:40.943Z,11.15
2023-04-10T16:43:11.135Z,12.13
2023-04-10T16:45:40.949Z,10.48
2023-04-10T16:48:10.477Z,10.80
2023-04-10T16:50:39.782Z,11.45
2023-04-10T16:53:09.180Z,10.88
2023-04-10T16:55:38.720Z,12.05
2023-04-10T16:58:08.216Z,10.23
2023-04-10T17:00:37.862Z,9.88
2023-04-10T17:03:07.736Z,10.58
2023-04-10T17:05:37.476Z,9.85
2023-04-10T17:08:07.133Z,10.53
2023-04-10T17:10:36.429Z,10.65
2023-04-10T17:13:06.017Z,11.05
2023-04-10T17:15:35.328Z,11.05
2023-04-10T17:18:04.721Z,11.97
2023-04-10T17:20:38.344Z,11.65
2023-04-10T17:23:07.899Z,12.00
2023-04-10T17:25:41.508Z,11.30
2023-04-10T17:28:11.278Z,11.70
2023-04-10T17:30:40.789Z,11.22
2023-04-10T17:33:10.433Z,11.60
2023-04-10T17:35:39.727Z,11.10
2023-04-10T17:38:09.053Z,12.35
2023-04-10T17:40:40.165Z,13.78
2023-04-10T17:43:09.800Z,11.48
2023-04-10T17:45:39.840Z,10.80
2023-04-10T17:48:09.275Z,10.68
2023-04-10T17:50:39.021Z,10.68
2023-04-10T17:53:08.537Z,11.08
2023-04-10T17:55:41.196Z,10.85
2023-04-10T18:00:44.129Z,10.10
2023-04-10T18:03:13.499Z,11.45
2023-04-10T18:05:43.215Z,9.38
2023-04-10T18:08:13.020Z,9.63
2023-04-10T18:10:42.660Z,9.38
2023-04-10T18:13:12.574Z,9.60
2023-04-10T18:15:41.948Z,9.03
2023-04-10T18:18:11.485Z,10.40
2023-04-10T18:20:40.738Z,8.43
2023-04-10T18:23:10.111Z,8.45
2023-04-10T18:25:39.397Z,8.30
2023-04-10T18:28:15.359Z,8.15
2023-04-10T18:30:40.639Z,7.85
2023-04-10T18:33:11.426Z,9.85
2023-04-10T18:35:41.227Z,8.38
2023-04-10T18:38:10.898Z,8.83
2023-04-10T18:40:40.297Z,8.28
2023-04-10T18:43:10.107Z,6.72
2023-04-10T18:45:40.557Z,6.60
2023-04-10T18:48:10.328Z,7.25
2023-04-10T18:50:39.965Z,6.78
2023-04-10T18:53:09.792Z,7.50
2023-04-10T18:55:39.527Z,7.85
2023-04-10T18:58:10.651Z,7.78
2023-04-10T19:00:40.444Z,8.70
2023-04-10T19:03:10.132Z,7.12
2023-04-10T19:05:39.753Z,7.70
2023-04-10T19:08:09.253Z,9.35
2023-04-10T19:10:38.985Z,9.35
2023-04-10T19:13:11.678Z,10.65
2023-04-10T19:15:46.480Z,8.75
2023-04-10T19:18:16.619Z,8.13
2023-04-10T19:20:49.755Z,8.65
2023-04-10T19:23:18.277Z,8.68
2023-04-10T19:25:49.893Z,9.03
2023-04-10T19:28:19.298Z,8.20
2023-04-10T19:30:48.860Z,10.28
2023-04-10T19:33:19.735Z,8.95
2023-04-10T19:35:49.054Z,8.40
2023-04-10T19:38:18.973Z,8.73
2023-04-10T19:40:48.253Z,8.93
2023-04-10T19:43:17.672Z,8.55
2023-04-10T19:45:46.999Z,9.10
2023-04-10T19:48:16.778Z,8.38
2023-04-10T19:50:46.060Z,9.65
2023-04-10T19:53:16.008Z,8.55
2023-04-10T19:55:46.946Z,7.95
2023-04-10T19:58:30.423Z,7.95
2023-04-10T20:00:48.229Z,7.83
2023-04-10T20:05:51.329Z,9.03
2023-04-10T20:08:21.270Z,8.00
2023-04-10T20:10:50.594Z,8.95
2023-04-10T20:13:20.421Z,8.10
2023-04-10T20:15:50.347Z,8.65
2023-04-10T20:18:19.775Z,9.40
2023-04-10T20:20:49.078Z,8.78
2023-04-10T20:23:19.111Z,8.48
2023-04-10T20:25:48.456Z,7.78
2023-04-10T20:28:18.128Z,7.80
2023-04-10T20:30:47.655Z,7.95
2023-04-10T20:33:17.118Z,7.15
2023-04-10T20:35:46.490Z,7.55
2023-04-10T20:38:16.089Z,8.08
2023-04-10T20:40:45.443Z,7.53
2023-04-10T20:43:15.092Z,6.22
2023-04-10T20:45:44.452Z,7.58
2023-04-10T20:48:15.385Z,9.45
2023-04-10T20:50:46.530Z,8.60
2023-04-10T20:53:16.028Z,7.37
2023-04-10T20:55:45.596Z,6.90
2023-04-10T20:58:15.574Z,7.42
2023-04-10T21:00:45.452Z,6.45
2023-04-10T21:03:14.960Z,6.92
2023-04-10T21:05:44.559Z,6.60
2023-04-10T21:08:14.957Z,6.53
2023-04-10T21:10:44.399Z,7.17
2023-04-10T21:13:15.640Z,6.92
2023-04-10T21:15:45.036Z,6.80
2023-04-10T21:18:14.358Z,7.30
2023-04-10T21:20:44.686Z,7.20
2023-04-10T21:23:14.050Z,7.05
2023-04-10T21:25:46.696Z,6.87
2023-04-10T21:30:45.134Z,7.78
2023-04-10T21:33:15.322Z,7.25
2023-04-10T21:35:44.917Z,7.22
2023-04-10T21:38:14.750Z,6.92
2023-04-10T21:40:52.225Z,7.65
2023-04-10T21:43:22.042Z,7.03
2023-04-10T21:45:51.612Z,7.10
2023-04-10T21:48:21.121Z,7.55
2023-04-10T21:50:51.479Z,6.50
2023-04-10T21:53:20.785Z,7.30
2023-04-10T21:55:50.769Z,7.15
2023-04-10T21:58:20.042Z,7.50
2023-04-10T22:00:51.866Z,7.85
2023-04-10T22:03:22.143Z,6.30
2023-04-10T22:05:51.675Z,6.53
2023-04-10T22:08:22.047Z,5.92
2023-04-10T22:10:52.351Z,5.65
2023-04-10T22:13:30.272Z,5.10
2023-04-10T22:15:53.067Z,5.62
2023-04-10T22:18:22.336Z,5.22
2023-04-10T22:20:52.100Z,4.20
2023-04-10T22:23:21.981Z,4.83
2023-04-10T22:25:51.579Z,5.42
2023-04-10T22:28:20.835Z,4.90
2023-04-10T22:30:50.216Z,4.47
2023-04-10T22:33:19.667Z,4.80
2023-04-10T22:35:48.933Z,4.50
2023-04-10T22:38:18.263Z,5.53
2023-04-10T22:40:47.540Z,5.17
2023-04-10T22:43:16.892Z,4.17
2023-04-10T22:45:46.357Z,5.00
2023-04-10T22:48:15.845Z,5.20
2023-04-10T22:50:45.750Z,4.95
2023-04-10T22:53:15.109Z,4.85
2023-04-10T22:55:44.457Z,4.50
2023-04-10T22:58:13.748Z,4.50
2023-04-10T23:00:43.034Z,4.20
2023-04-10T23:03:12.455Z,4.83
2023-04-10T23:05:42.116Z,4.62
2023-04-10T23:08:11.557Z,3.90
2023-04-10T23:10:41.060Z,4.58
2023-04-10T23:13:10.426Z,4.58
2023-04-10T23:15:39.777Z,4.67
2023-04-10T23:18:09.204Z,4.55
2023-04-10T23:20:38.494Z,5.33
2023-04-10T23:23:08.182Z,4.60
2023-04-10T23:25:38.295Z,5.58
2023-04-10T23:28:07.703Z,4.42
2023-04-10T23:30:42.575Z,4.35
2023-04-10T23:33:11.945Z,4.30
2023-04-10T23:35:41.361Z,3.90
2023-04-10T23:38:11.188Z,5.22
2023-04-10T23:40:40.690Z,4.50
2023-04-10T23:43:09.988Z,4.17
2023-04-10T23:45:39.400Z,4.42
2023-04-10T23:48:11.714Z,4.17
2023-04-10T23:50:41.362Z,4.47
2023-04-10T23:53:11.496Z,5.15
2023-04-10T23:55:41.716Z,4.70
2023-04-10T23:58:11.131Z,5.37
